sensor_id;sensor_type;location;lat;lon;timestamp;temperature;humidity
10846;DHT22;5476;51.540;7.186;2023-09-12T00:01:26;24.80;99.90
10846;DHT22;5476;51.540;7.186;2023-09-12T00:03:53;23.10;99.90
10846;DHT22;5476;51.540;7.186;2023-09-12T00:06:20;24.60;99.90
10846;DHT22;5476;51.540;7.186;2023-09-12T00:08:48;24.40;99.90
10846;DHT22;5476;51.540;7.186;2023-09-12T00:11:15;24.50;99.90
10846;DHT22;5476;51.540;7.186;2023-09-12T00:13:44;24.50;99.90
10846;DHT22;5476;51.540;7.186;2023-09-12T00:16:11;24.50;99.90
10846;DHT22;5476;51.540;7.186;2023-09-12T00:18:39;24.30;99.90
10846;DHT22;5476;51.540;7.186;2023-09-12T00:21:08;24.50;99.90
10846;DHT22;5476;51.540;7.186;2023-09-12T00:23:35;24.40;99.90
10846;DHT22;5476;51.540;7.186;2023-09-12T00:26:03;24.30;99.90
10846;DHT22;5476;51.540;7.186;2023-09-12T00:28:32;24.50;99.90
10846;DHT22;5476;51.540;7.186;2023-09-12T00:31:01;24.50;99.90
10846;DHT22;5476;51.540;7.186;2023-09-12T00:33:28;24.20;99.90
10846;DHT22;5476;51.540;7.186;2023-09-12T00:35:55;22.00;99.90
10846;DHT22;5476;51.540;7.186;2023-09-12T00:38:22;24.20;99.90
10846;DHT22;5476;51.540;7.186;2023-09-12T00:40:49;24.20;99.90
10846;DHT22;5476;51.540;7.186;2023-09-12T00:43:17;24.20;99.90
10846;DHT22;5476;51.540;7.186;2023-09-12T00:45:44;24.00;99.90
10846;DHT22;5476;51.540;7.186;2023-09-12T00:48:13;23.80;99.90
10846;DHT22;5476;51.540;7.186;2023-09-12T00:50:45;20.80;99.90
10846;DHT22;5476;51.540;7.186;2023-09-12T00:53:13;23.60;99.90
10846;DHT22;5476;51.540;7.186;2023-09-12T00:55:46;23.50;99.90
10846;DHT22;5476;51.540;7.186;2023-09-12T00:58:15;25.00;99.90
10846;DHT22;5476;51.540;7.186;2023-09-12T01:00:52;23.40;99.90
10846;DHT22;5476;51.540;7.186;2023-09-12T01:03:33;23.20;99.90
10846;DHT22;5476;51.540;7.186;2023-09-12T01:06:03;22.20;99.90
10846;DHT22;5476;51.540;7.186;2023-09-12T01:08:37;23.20;99.90
10846;DHT22;5476;51.540;7.186;2023-09-12T01:11:08;23.20;99.90
10846;DHT22;5476;51.540;7.186;2023-09-12T01:13:43;21.90;99.90
10846;DHT22;5476;51.540;7.186;2023-09-12T01:16:16;22.60;99.90
10846;DHT22;5476;51.540;7.186;2023-09-12T01:18:49;22.90;99.90
10846;DHT22;5476;51.540;7.186;2023-09-12T01:21:38;22.90;99.90
10846;DHT22;5476;51.540;7.186;2023-09-12T01:24:43;22.90;99.90
10846;DHT22;5476;51.540;7.186;2023-09-12T01:27:27;22.90;99.90
10846;DHT22;5476;51.540;7.186;2023-09-12T01:29:57;22.80;99.90
10846;DHT22;5476;51.540;7.186;2023-09-12T01:35:19;23.60;99.90
10846;DHT22;5476;51.540;7.186;2023-09-12T01:37:53;23.00;99.90
10846;DHT22;5476;51.540;7.186;2023-09-12T01:40:34;21.90;99.90
10846;DHT22;5476;51.540;7.186;2023-09-12T01:43:10;23.30;99.90
10846;DHT22;5476;51.540;7.186;2023-09-12T01:45:43;23.20;99.90
10846;DHT22;5476;51.540;7.186;2023-09-12T01:48:15;23.00;99.90
10846;DHT22;5476;51.540;7.186;2023-09-12T01:51:04;23.00;99.90
10846;DHT22;5476;51.540;7.186;2023-09-12T01:53:50;21.50;99.90
10846;DHT22;5476;51.540;7.186;2023-09-12T01:56:22;23.00;99.90
10846;DHT22;5476;51.540;7.186;2023-09-12T01:58:54;23.00;99.90
10846;DHT22;5476;51.540;7.186;2023-09-12T02:01:24;23.00;99.90
10846;DHT22;5476;51.540;7.186;2023-09-12T02:03:53;23.00;99.90
10846;DHT22;5476;51.540;7.186;2023-09-12T02:06:22;22.80;99.90
10846;DHT22;5476;51.540;7.186;2023-09-12T02:08:51;22.60;99.90
10846;DHT22;5476;51.540;7.186;2023-09-12T02:11:24;22.50;99.90
10846;DHT22;5476;51.540;7.186;2023-09-12T02:13:54;22.70;99.90
10846;DHT22;5476;51.540;7.186;2023-09-12T02:16:24;22.90;99.90
10846;DHT22;5476;51.540;7.186;2023-09-12T02:18:55;22.70;99.90
10846;DHT22;5476;51.540;7.186;2023-09-12T02:21:22;22.70;99.90
10846;DHT22;5476;51.540;7.186;2023-09-12T02:23:50;23.90;99.90
10846;DHT22;5476;51.540;7.186;2023-09-12T02:26:23;22.90;99.90
10846;DHT22;5476;51.540;7.186;2023-09-12T02:28:55;25.20;99.90
10846;DHT22;5476;51.540;7.186;2023-09-12T02:31:26;23.90;99.90
10846;DHT22;5476;51.540;7.186;2023-09-12T02:33:56;22.80;99.90
10846;DHT22;5476;51.540;7.186;2023-09-12T02:36:26;22.60;99.90
10846;DHT22;5476;51.540;7.186;2023-09-12T02:38:53;22.60;99.90
10846;DHT22;5476;51.540;7.186;2023-09-12T02:41:20;22.60;99.90
10846;DHT22;5476;51.540;7.186;2023-09-12T02:43:49;22.60;99.90
10846;DHT22;5476;51.540;7.186;2023-09-12T02:46:17;22.60;99.90
10846;DHT22;5476;51.540;7.186;2023-09-12T02:48:44;22.60;99.90
10846;DHT22;5476;51.540;7.186;2023-09-12T02:51:12;22.50;99.90
10846;DHT22;5476;51.540;7.186;2023-09-12T02:53:39;22.70;99.90
10846;DHT22;5476;51.540;7.186;2023-09-12T02:56:07;22.50;99.90
10846;DHT22;5476;51.540;7.186;2023-09-12T02:58:36;22.60;99.90
10846;DHT22;5476;51.540;7.186;2023-09-12T03:01:03;22.60;99.90
10846;DHT22;5476;51.540;7.186;2023-09-12T03:03:35;22.50;99.90
10846;DHT22;5476;51.540;7.186;2023-09-12T03:06:02;22.60;99.90
10846;DHT22;5476;51.540;7.186;2023-09-12T03:08:31;22.50;99.90
10846;DHT22;5476;51.540;7.186;2023-09-12T03:10:58;23.70;99.90
10846;DHT22;5476;51.540;7.186;2023-09-12T03:13:28;22.60;99.90
10846;DHT22;5476;51.540;7.186;2023-09-12T03:15:55;22.60;99.90
10846;DHT22;5476;51.540;7.186;2023-09-12T03:18:21;22.40;99.90
10846;DHT22;5476;51.540;7.186;2023-09-12T03:20:50;22.40;99.90
10846;DHT22;5476;51.540;7.186;2023-09-12T03:23:17;23.90;99.90
10846;DHT22;5476;51.540;7.186;2023-09-12T03:25:46;24.10;99.90
10846;DHT22;5476;51.540;7.186;2023-09-12T03:28:13;22.50;99.90
10846;DHT22;5476;51.540;7.186;2023-09-12T03:30:39;22.60;99.90
10846;DHT22;5476;51.540;7.186;2023-09-12T03:33:06;22.40;99.90
10846;DHT22;5476;51.540;7.186;2023-09-12T03:35:33;22.30;99.90
10846;DHT22;5476;51.540;7.186;2023-09-12T03:38:02;24.50;99.90
10846;DHT22;5476;51.540;7.186;2023-09-12T03:40:29;22.20;99.90
10846;DHT22;5476;51.540;7.186;2023-09-12T03:42:58;22.20;99.90
10846;DHT22;5476;51.540;7.186;2023-09-12T03:45:24;22.20;99.90
10846;DHT22;5476;51.540;7.186;2023-09-12T03:47:51;24.00;99.90
10846;DHT22;5476;51.540;7.186;2023-09-12T03:50:21;21.00;99.90
10846;DHT22;5476;51.540;7.186;2023-09-12T03:52:54;22.20;99.90
10846;DHT22;5476;51.540;7.186;2023-09-12T03:55:30;22.10;99.90
10846;DHT22;5476;51.540;7.186;2023-09-12T03:58:05;22.20;99.90
10846;DHT22;5476;51.540;7.186;2023-09-12T04:00:41;21.80;99.90
10846;DHT22;5476;51.540;7.186;2023-09-12T04:03:27;22.10;99.90
10846;DHT22;5476;51.540;7.186;2023-09-12T04:05:54;22.30;99.90
10846;DHT22;5476;51.540;7.186;2023-09-12T04:08:29;19.90;99.90
10846;DHT22;5476;51.540;7.186;2023-09-12T04:11:04;22.30;99.90
10846;DHT22;5476;51.540;7.186;2023-09-12T04:13:41;23.00;99.90
10846;DHT22;5476;51.540;7.186;2023-09-12T04:16:11;22.20;99.90
10846;DHT22;5476;51.540;7.186;2023-09-12T04:18:38;21.90;99.90
10846;DHT22;5476;51.540;7.186;2023-09-12T04:21:09;22.10;99.90
10846;DHT22;5476;51.540;7.186;2023-09-12T04:23:38;22.20;99.90
10846;DHT22;5476;51.540;7.186;2023-09-12T04:26:09;22.20;99.90
10846;DHT22;5476;51.540;7.186;2023-09-12T04:28:52;22.10;99.90
10846;DHT22;5476;51.540;7.186;2023-09-12T04:31:32;22.60;99.90
10846;DHT22;5476;51.540;7.186;2023-09-12T04:34:00;22.10;99.90
10846;DHT22;5476;51.540;7.186;2023-09-12T04:36:27;22.00;99.90
10846;DHT22;5476;51.540;7.186;2023-09-12T04:38:54;22.00;99.90
10846;DHT22;5476;51.540;7.186;2023-09-12T04:41:22;22.20;99.90
10846;DHT22;5476;51.540;7.186;2023-09-12T04:43:48;22.00;99.90
10846;DHT22;5476;51.540;7.186;2023-09-12T04:46:21;21.90;99.90
10846;DHT22;5476;51.540;7.186;2023-09-12T04:48:48;21.30;99.90
10846;DHT22;5476;51.540;7.186;2023-09-12T04:51:15;22.70;99.90
10846;DHT22;5476;51.540;7.186;2023-09-12T04:53:45;21.80;99.90
10846;DHT22;5476;51.540;7.186;2023-09-12T04:56:17;21.90;99.90
10846;DHT22;5476;51.540;7.186;2023-09-12T04:58:45;21.70;99.90
10846;DHT22;5476;51.540;7.186;2023-09-12T05:01:15;22.10;99.90
10846;DHT22;5476;51.540;7.186;2023-09-12T05:03:42;21.60;99.90
10846;DHT22;5476;51.540;7.186;2023-09-12T05:06:11;21.70;99.90
10846;DHT22;5476;51.540;7.186;2023-09-12T05:08:40;24.20;99.90
10846;DHT22;5476;51.540;7.186;2023-09-12T05:11:13;21.80;99.90
10846;DHT22;5476;51.540;7.186;2023-09-12T05:13:41;21.90;99.90
10846;DHT22;5476;51.540;7.186;2023-09-12T05:16:15;21.90;99.90
10846;DHT22;5476;51.540;7.186;2023-09-12T05:18:44;22.00;99.90
10846;DHT22;5476;51.540;7.186;2023-09-12T05:21:19;22.00;99.90
10846;DHT22;5476;51.540;7.186;2023-09-12T05:23:49;20.50;99.90
10846;DHT22;5476;51.540;7.186;2023-09-12T05:26:19;22.50;99.90
10846;DHT22;5476;51.540;7.186;2023-09-12T05:28:51;22.80;99.90
10846;DHT22;5476;51.540;7.186;2023-09-12T05:31:29;22.70;99.90
10846;DHT22;5476;51.540;7.186;2023-09-12T05:33:57;22.10;99.90
10846;DHT22;5476;51.540;7.186;2023-09-12T05:36:24;22.10;99.90
10846;DHT22;5476;51.540;7.186;2023-09-12T05:38:54;22.90;99.90
10846;DHT22;5476;51.540;7.186;2023-09-12T05:41:21;20.50;99.90
10846;DHT22;5476;51.540;7.186;2023-09-12T05:43:49;23.20;99.90
10846;DHT22;5476;51.540;7.186;2023-09-12T05:46:18;22.70;99.90
10846;DHT22;5476;51.540;7.186;2023-09-12T05:48:47;21.90;99.90
10846;DHT22;5476;51.540;7.186;2023-09-12T05:51:16;22.50;99.90
10846;DHT22;5476;51.540;7.186;2023-09-12T05:53:48;21.90;99.90
10846;DHT22;5476;51.540;7.186;2023-09-12T05:56:17;21.90;99.90
10846;DHT22;5476;51.540;7.186;2023-09-12T05:58:46;21.90;99.90
10846;DHT22;5476;51.540;7.186;2023-09-12T06:04:16;21.80;99.90
10846;DHT22;5476;51.540;7.186;2023-09-12T06:06:46;21.70;99.90
10846;DHT22;5476;51.540;7.186;2023-09-12T06:09:12;22.00;99.90
10846;DHT22;5476;51.540;7.186;2023-09-12T06:12:07;22.40;99.90
10846;DHT22;5476;51.540;7.186;2023-09-12T06:14:40;21.70;99.90
10846;DHT22;5476;51.540;7.186;2023-09-12T06:17:07;21.80;99.90
10846;DHT22;5476;51.540;7.186;2023-09-12T06:19:35;22.50;99.90
10846;DHT22;5476;51.540;7.186;2023-09-12T06:22:02;21.80;99.90
10846;DHT22;5476;51.540;7.186;2023-09-12T06:24:29;21.90;99.90
10846;DHT22;5476;51.540;7.186;2023-09-12T06:26:55;21.90;99.90
10846;DHT22;5476;51.540;7.186;2023-09-12T06:29:22;21.90;99.90
10846;DHT22;5476;51.540;7.186;2023-09-12T06:31:49;22.20;99.90
10846;DHT22;5476;51.540;7.186;2023-09-12T06:34:16;22.00;99.90
10846;DHT22;5476;51.540;7.186;2023-09-12T06:36:44;22.00;99.90
10846;DHT22;5476;51.540;7.186;2023-09-12T06:39:12;23.30;99.90
10846;DHT22;5476;51.540;7.186;2023-09-12T06:41:41;21.80;99.90
10846;DHT22;5476;51.540;7.186;2023-09-12T06:44:08;22.40;99.90
10846;DHT22;5476;51.540;7.186;2023-09-12T06:46:38;22.60;99.90
10846;DHT22;5476;51.540;7.186;2023-09-12T06:49:14;21.40;99.90
10846;DHT22;5476;51.540;7.186;2023-09-12T06:51:41;22.80;99.90
10846;DHT22;5476;51.540;7.186;2023-09-12T06:54:09;21.60;99.90
10846;DHT22;5476;51.540;7.186;2023-09-12T06:56:36;21.30;99.90
10846;DHT22;5476;51.540;7.186;2023-09-12T06:59:04;22.10;99.90
10846;DHT22;5476;51.540;7.186;2023-09-12T07:01:30;23.70;99.90
10846;DHT22;5476;51.540;7.186;2023-09-12T07:03:57;21.30;99.90
10846;DHT22;5476;51.540;7.186;2023-09-12T07:06:24;22.10;99.90
10846;DHT22;5476;51.540;7.186;2023-09-12T07:08:51;21.70;99.90
10846;DHT22;5476;51.540;7.186;2023-09-12T07:11:19;22.80;99.90
10846;DHT22;5476;51.540;7.186;2023-09-12T07:13:46;23.30;99.90
10846;DHT22;5476;51.540;7.186;2023-09-12T07:16:13;21.40;99.90
10846;DHT22;5476;51.540;7.186;2023-09-12T07:18:40;23.00;99.90
10846;DHT22;5476;51.540;7.186;2023-09-12T07:21:07;23.50;99.90
10846;DHT22;5476;51.540;7.186;2023-09-12T07:23:36;21.30;99.90
10846;DHT22;5476;51.540;7.186;2023-09-12T07:26:03;21.30;99.90
10846;DHT22;5476;51.540;7.186;2023-09-12T07:28:31;21.40;99.90
10846;DHT22;5476;51.540;7.186;2023-09-12T07:30:58;23.70;99.90
10846;DHT22;5476;51.540;7.186;2023-09-12T07:33:32;23.90;99.90
10846;DHT22;5476;51.540;7.186;2023-09-12T07:35:59;22.80;99.90
10846;DHT22;5476;51.540;7.186;2023-09-12T07:38:28;22.10;99.90
10846;DHT22;5476;51.540;7.186;2023-09-12T07:40:56;21.50;99.90
10846;DHT22;5476;51.540;7.186;2023-09-12T07:43:23;21.50;99.90
10846;DHT22;5476;51.540;7.186;2023-09-12T07:45:56;21.50;99.90
10846;DHT22;5476;51.540;7.186;2023-09-12T07:48:24;23.80;99.90
10846;DHT22;5476;51.540;7.186;2023-09-12T07:50:51;21.80;99.90
10846;DHT22;5476;51.540;7.186;2023-09-12T07:53:18;21.50;99.90
10846;DHT22;5476;51.540;7.186;2023-09-12T07:55:45;21.90;99.90
10846;DHT22;5476;51.540;7.186;2023-09-12T07:58:13;22.90;99.90
10846;DHT22;5476;51.540;7.186;2023-09-12T08:00:40;21.70;99.90
10846;DHT22;5476;51.540;7.186;2023-09-12T08:03:08;22.10;99.90
10846;DHT22;5476;51.540;7.186;2023-09-12T08:05:35;21.80;99.90
10846;DHT22;5476;51.540;7.186;2023-09-12T08:08:04;22.10;99.90
10846;DHT22;5476;51.540;7.186;2023-09-12T08:10:30;22.00;99.90
10846;DHT22;5476;51.540;7.186;2023-09-12T08:12:57;22.10;99.90
10846;DHT22;5476;51.540;7.186;2023-09-12T08:15:24;22.00;99.90
10846;DHT22;5476;51.540;7.186;2023-09-12T08:17:53;22.00;99.90
10846;DHT22;5476;51.540;7.186;2023-09-12T08:20:21;22.00;99.90
10846;DHT22;5476;51.540;7.186;2023-09-12T08:22:48;22.40;99.90
10846;DHT22;5476;51.540;7.186;2023-09-12T08:25:15;22.00;99.90
10846;DHT22;5476;51.540;7.186;2023-09-12T08:27:44;22.00;99.90
10846;DHT22;5476;51.540;7.186;2023-09-12T08:30:11;23.80;99.90
10846;DHT22;5476;51.540;7.186;2023-09-12T08:32:39;22.00;99.90
10846;DHT22;5476;51.540;7.186;2023-09-12T08:35:09;22.10;99.90
10846;DHT22;5476;51.540;7.186;2023-09-12T08:37:39;22.10;99.90
10846;DHT22;5476;51.540;7.186;2023-09-12T08:40:07;22.10;99.90
10846;DHT22;5476;51.540;7.186;2023-09-12T08:42:39;22.20;99.90
10846;DHT22;5476;51.540;7.186;2023-09-12T08:45:11;22.90;99.90
10846;DHT22;5476;51.540;7.186;2023-09-12T08:47:41;22.20;99.90
10846;DHT22;5476;51.540;7.186;2023-09-12T08:50:10;22.80;99.90
10846;DHT22;5476;51.540;7.186;2023-09-12T08:52:40;22.40;99.90
10846;DHT22;5476;51.540;7.186;2023-09-12T08:55:07;22.40;99.90
10846;DHT22;5476;51.540;7.186;2023-09-12T08:57:36;22.60;99.90
10846;DHT22;5476;51.540;7.186;2023-09-12T09:00:05;23.70;99.90
10846;DHT22;5476;51.540;7.186;2023-09-12T09:02:36;22.90;99.90
10846;DHT22;5476;51.540;7.186;2023-09-12T09:05:04;23.00;99.90
10846;DHT22;5476;51.540;7.186;2023-09-12T09:07:33;23.20;99.90
10846;DHT22;5476;51.540;7.186;2023-09-12T09:10:03;23.40;99.90
10846;DHT22;5476;51.540;7.186;2023-09-12T09:12:31;23.50;99.90
10846;DHT22;5476;51.540;7.186;2023-09-12T09:14:58;24.90;99.90
10846;DHT22;5476;51.540;7.186;2023-09-12T09:17:26;23.90;99.90
10846;DHT22;5476;51.540;7.186;2023-09-12T09:19:53;25.60;99.90
10846;DHT22;5476;51.540;7.186;2023-09-12T09:22:20;24.30;99.90
10846;DHT22;5476;51.540;7.186;2023-09-12T09:24:48;24.50;99.90
10846;DHT22;5476;51.540;7.186;2023-09-12T09:27:47;24.70;99.90
10846;DHT22;5476;51.540;7.186;2023-09-12T09:33:49;25.20;99.90
10846;DHT22;5476;51.540;7.186;2023-09-12T09:36:17;26.00;99.90
10846;DHT22;5476;51.540;7.186;2023-09-12T09:38:50;29.40;99.90
10846;DHT22;5476;51.540;7.186;2023-09-12T09:41:24;26.40;99.90
10846;DHT22;5476;51.540;7.186;2023-09-12T09:43:52;27.20;99.90
10846;DHT22;5476;51.540;7.186;2023-09-12T09:46:19;27.00;99.90
10846;DHT22;5476;51.540;7.186;2023-09-12T09:48:49;27.90;99.90
10846;DHT22;5476;51.540;7.186;2023-09-12T09:53:51;25.20;99.90
10846;DHT22;5476;51.540;7.186;2023-09-12T09:58:48;28.00;99.90
10846;DHT22;5476;51.540;7.186;2023-09-12T10:01:19;28.00;99.90
10846;DHT22;5476;51.540;7.186;2023-09-12T10:03:46;28.00;99.90
10846;DHT22;5476;51.540;7.186;2023-09-12T10:06:15;28.00;99.90
10846;DHT22;5476;51.540;7.186;2023-09-12T10:08:44;28.10;99.90
10846;DHT22;5476;51.540;7.186;2023-09-12T10:11:13;28.00;99.90
10846;DHT22;5476;51.540;7.186;2023-09-12T10:13:45;28.00;99.90
10846;DHT22;5476;51.540;7.186;2023-09-12T10:16:14;28.00;99.90
10846;DHT22;5476;51.540;7.186;2023-09-12T10:18:59;28.00;99.90
10846;DHT22;5476;51.540;7.186;2023-09-12T10:21:29;28.20;99.90
10846;DHT22;5476;51.540;7.186;2023-09-12T10:23:59;28.30;99.90
10846;DHT22;5476;51.540;7.186;2023-09-12T10:28:54;28.30;99.90
10846;DHT22;5476;51.540;7.186;2023-09-12T10:31:22;28.40;99.90
10846;DHT22;5476;51.540;7.186;2023-09-12T10:33:51;28.50;99.90
10846;DHT22;5476;51.540;7.186;2023-09-12T10:36:20;28.50;99.90
10846;DHT22;5476;51.540;7.186;2023-09-12T10:43:45;29.40;99.90
10846;DHT22;5476;51.540;7.186;2023-09-12T10:48:43;29.80;99.90
10846;DHT22;5476;51.540;7.186;2023-09-12T10:51:11;30.50;99.90
10846;DHT22;5476;51.540;7.186;2023-09-12T10:53:49;30.70;99.90
10846;DHT22;5476;51.540;7.186;2023-09-12T10:56:19;30.90;99.90
10846;DHT22;5476;51.540;7.186;2023-09-12T10:59:14;30.90;99.90
10846;DHT22;5476;51.540;7.186;2023-09-12T11:01:42;31.00;99.90
10846;DHT22;5476;51.540;7.186;2023-09-12T11:04:41;30.90;99.90
10846;DHT22;5476;51.540;7.186;2023-09-12T11:07:30;30.80;99.90
10846;DHT22;5476;51.540;7.186;2023-09-12T11:10:18;30.90;99.90
10846;DHT22;5476;51.540;7.186;2023-09-12T11:12:46;30.80;99.90
10846;DHT22;5476;51.540;7.186;2023-09-12T11:15:14;31.00;99.90
10846;DHT22;5476;51.540;7.186;2023-09-12T11:17:43;31.30;99.90
10846;DHT22;5476;51.540;7.186;2023-09-12T11:20:10;31.30;99.90
10846;DHT22;5476;51.540;7.186;2023-09-12T11:22:38;31.60;99.90
10846;DHT22;5476;51.540;7.186;2023-09-12T11:25:17;31.90;99.90
10846;DHT22;5476;51.540;7.186;2023-09-12T11:27:46;32.00;99.90
10846;DHT22;5476;51.540;7.186;2023-09-12T11:30:28;32.00;99.90
10846;DHT22;5476;51.540;7.186;2023-09-12T11:32:57;31.90;99.90
10846;DHT22;5476;51.540;7.186;2023-09-12T11:35:27;31.80;99.90
10846;DHT22;5476;51.540;7.186;2023-09-12T11:37:57;31.70;99.90
10846;DHT22;5476;51.540;7.186;2023-09-12T11:40:42;31.50;99.90
10846;DHT22;5476;51.540;7.186;2023-09-12T11:43:20;31.50;99.90
10846;DHT22;5476;51.540;7.186;2023-09-12T11:45:48;31.40;99.90
10846;DHT22;5476;51.540;7.186;2023-09-12T11:50:42;31.50;99.90
10846;DHT22;5476;51.540;7.186;2023-09-12T11:53:18;31.50;99.90
10846;DHT22;5476;51.540;7.186;2023-09-12T11:55:48;31.40;99.90
10846;DHT22;5476;51.540;7.186;2023-09-12T11:58:20;31.50;99.90
10846;DHT22;5476;51.540;7.186;2023-09-12T12:00:50;31.60;99.90
10846;DHT22;5476;51.540;7.186;2023-09-12T12:03:20;31.90;99.90
10846;DHT22;5476;51.540;7.186;2023-09-12T12:05:47;32.10;99.50
10846;DHT22;5476;51.540;7.186;2023-09-12T12:08:16;32.30;99.20
10846;DHT22;5476;51.540;7.186;2023-09-12T12:10:43;32.40;98.20
10846;DHT22;5476;51.540;7.186;2023-09-12T12:13:16;32.50;97.60
10846;DHT22;5476;51.540;7.186;2023-09-12T12:15:43;32.60;97.30
10846;DHT22;5476;51.540;7.186;2023-09-12T12:18:10;32.80;97.00
10846;DHT22;5476;51.540;7.186;2023-09-12T12:23:04;33.20;95.80
10846;DHT22;5476;51.540;7.186;2023-09-12T12:25:34;33.40;95.20
10846;DHT22;5476;51.540;7.186;2023-09-12T12:28:01;33.50;93.10
10846;DHT22;5476;51.540;7.186;2023-09-12T12:30:35;33.60;93.00
10846;DHT22;5476;51.540;7.186;2023-09-12T12:33:09;33.80;92.60
10846;DHT22;5476;51.540;7.186;2023-09-12T12:38:04;32.70;91.30
10846;DHT22;5476;51.540;7.186;2023-09-12T12:40:31;34.10;91.20
10846;DHT22;5476;51.540;7.186;2023-09-12T12:42:58;34.00;90.40
10846;DHT22;5476;51.540;7.186;2023-09-12T12:45:26;34.00;90.60
10846;DHT22;5476;51.540;7.186;2023-09-12T12:47:58;33.80;90.60
10846;DHT22;5476;51.540;7.186;2023-09-12T12:50:25;33.80;91.00
10846;DHT22;5476;51.540;7.186;2023-09-12T12:52:52;33.70;90.80
10846;DHT22;5476;51.540;7.186;2023-09-12T12:55:21;33.70;91.40
10846;DHT22;5476;51.540;7.186;2023-09-12T12:57:48;33.70;92.00
10846;DHT22;5476;51.540;7.186;2023-09-12T13:00:17;33.90;91.00
10846;DHT22;5476;51.540;7.186;2023-09-12T13:02:45;33.90;90.30
10846;DHT22;5476;51.540;7.186;2023-09-12T13:05:23;33.80;90.90
10846;DHT22;5476;51.540;7.186;2023-09-12T13:07:50;33.80;88.80
10846;DHT22;5476;51.540;7.186;2023-09-12T13:10:17;33.50;89.10
10846;DHT22;5476;51.540;7.186;2023-09-12T13:12:44;33.50;88.70
10846;DHT22;5476;51.540;7.186;2023-09-12T13:15:11;33.40;88.10
10846;DHT22;5476;51.540;7.186;2023-09-12T13:17:40;32.90;85.40
10846;DHT22;5476;51.540;7.186;2023-09-12T13:20:07;32.70;88.50
10846;DHT22;5476;51.540;7.186;2023-09-12T13:22:36;32.60;91.20
10846;DHT22;5476;51.540;7.186;2023-09-12T13:25:05;32.50;91.00
10846;DHT22;5476;51.540;7.186;2023-09-12T13:27:32;32.50;91.40
10846;DHT22;5476;51.540;7.186;2023-09-12T13:30:02;32.40;91.60
10846;DHT22;5476;51.540;7.186;2023-09-12T13:32:30;32.30;91.10
10846;DHT22;5476;51.540;7.186;2023-09-12T13:34:58;32.30;91.00
10846;DHT22;5476;51.540;7.186;2023-09-12T13:37:25;32.30;91.20
10846;DHT22;5476;51.540;7.186;2023-09-12T13:39:54;32.30;91.30
10846;DHT22;5476;51.540;7.186;2023-09-12T13:42:21;31.80;93.10
10846;DHT22;5476;51.540;7.186;2023-09-12T13:44:48;31.70;93.20
10846;DHT22;5476;51.540;7.186;2023-09-12T13:47:15;32.10;93.80
10846;DHT22;5476;51.540;7.186;2023-09-12T13:49:47;32.20;93.30
10846;DHT22;5476;51.540;7.186;2023-09-12T13:52:14;32.30;93.10
10846;DHT22;5476;51.540;7.186;2023-09-12T13:54:44;32.50;92.30
10846;DHT22;5476;51.540;7.186;2023-09-12T13:57:12;32.70;92.10
10846;DHT22;5476;51.540;7.186;2023-09-12T13:59:42;32.80;91.70
10846;DHT22;5476;51.540;7.186;2023-09-12T14:02:09;32.80;91.70
10846;DHT22;5476;51.540;7.186;2023-09-12T14:04:35;32.80;92.10
10846;DHT22;5476;51.540;7.186;2023-09-12T14:07:02;33.00;91.80
10846;DHT22;5476;51.540;7.186;2023-09-12T14:09:32;32.90;91.70
10846;DHT22;5476;51.540;7.186;2023-09-12T14:11:59;32.80;91.60
10846;DHT22;5476;51.540;7.186;2023-09-12T14:14:30;32.90;91.70
10846;DHT22;5476;51.540;7.186;2023-09-12T14:16:57;33.00;91.70
10846;DHT22;5476;51.540;7.186;2023-09-12T14:19:25;33.10;91.50
10846;DHT22;5476;51.540;7.186;2023-09-12T14:21:51;33.10;91.20
10846;DHT22;5476;51.540;7.186;2023-09-12T14:24:18;33.20;91.20
10846;DHT22;5476;51.540;7.186;2023-09-12T14:26:45;33.30;90.90
10846;DHT22;5476;51.540;7.186;2023-09-12T14:29:12;33.30;90.60
10846;DHT22;5476;51.540;7.186;2023-09-12T14:31:40;33.40;90.30
10846;DHT22;5476;51.540;7.186;2023-09-12T14:34:19;33.40;90.20
10846;DHT22;5476;51.540;7.186;2023-09-12T14:36:46;33.30;90.30
10846;DHT22;5476;51.540;7.186;2023-09-12T14:41:40;33.20;90.60
10846;DHT22;5476;51.540;7.186;2023-09-12T14:44:09;32.90;90.80
10846;DHT22;5476;51.540;7.186;2023-09-12T14:46:36;32.70;91.40
10846;DHT22;5476;51.540;7.186;2023-09-12T14:49:05;32.70;91.70
10846;DHT22;5476;51.540;7.186;2023-09-12T14:51:32;32.60;92.40
10846;DHT22;5476;51.540;7.186;2023-09-12T14:53:59;32.60;91.90
10846;DHT22;5476;51.540;7.186;2023-09-12T14:56:26;32.10;92.80
10846;DHT22;5476;51.540;7.186;2023-09-12T14:58:52;34.00;94.50
10846;DHT22;5476;51.540;7.186;2023-09-12T15:01:19;32.60;93.80
10846;DHT22;5476;51.540;7.186;2023-09-12T15:03:46;32.60;93.60
10846;DHT22;5476;51.540;7.186;2023-09-12T15:06:14;32.50;93.00
10846;DHT22;5476;51.540;7.186;2023-09-12T15:08:41;32.40;93.30
10846;DHT22;5476;51.540;7.186;2023-09-12T15:11:08;32.40;94.10
10846;DHT22;5476;51.540;7.186;2023-09-12T15:13:36;32.30;94.60
10846;DHT22;5476;51.540;7.186;2023-09-12T15:16:03;32.30;94.50
10846;DHT22;5476;51.540;7.186;2023-09-12T15:18:31;32.20;93.60
10846;DHT22;5476;51.540;7.186;2023-09-12T15:20:58;32.20;94.20
10846;DHT22;5476;51.540;7.186;2023-09-12T15:23:26;32.10;95.40
10846;DHT22;5476;51.540;7.186;2023-09-12T15:25:54;32.00;95.50
10846;DHT22;5476;51.540;7.186;2023-09-12T15:28:21;31.70;96.10
10846;DHT22;5476;51.540;7.186;2023-09-12T15:30:47;31.70;96.20
10846;DHT22;5476;51.540;7.186;2023-09-12T15:33:14;31.60;97.10
10846;DHT22;5476;51.540;7.186;2023-09-12T15:35:41;31.50;97.50
10846;DHT22;5476;51.540;7.186;2023-09-12T15:38:08;31.50;98.10
10846;DHT22;5476;51.540;7.186;2023-09-12T15:40:37;31.50;98.20
10846;DHT22;5476;51.540;7.186;2023-09-12T15:43:04;31.40;98.70
10846;DHT22;5476;51.540;7.186;2023-09-12T15:45:31;31.30;99.40
10846;DHT22;5476;51.540;7.186;2023-09-12T15:47:58;31.30;98.90
10846;DHT22;5476;51.540;7.186;2023-09-12T15:50:24;31.20;99.30
10846;DHT22;5476;51.540;7.186;2023-09-12T15:52:51;31.20;99.80
10846;DHT22;5476;51.540;7.186;2023-09-12T15:55:18;31.00;99.90
10846;DHT22;5476;51.540;7.186;2023-09-12T15:57:46;30.90;99.90
10846;DHT22;5476;51.540;7.186;2023-09-12T16:00:14;30.80;99.90
10846;DHT22;5476;51.540;7.186;2023-09-12T16:02:41;30.80;99.90
10846;DHT22;5476;51.540;7.186;2023-09-12T16:05:09;30.80;99.90
10846;DHT22;5476;51.540;7.186;2023-09-12T16:07:36;30.80;99.90
10846;DHT22;5476;51.540;7.186;2023-09-12T16:10:03;30.80;99.90
10846;DHT22;5476;51.540;7.186;2023-09-12T16:12:33;30.70;99.90
10846;DHT22;5476;51.540;7.186;2023-09-12T16:15:01;30.70;99.90
10846;DHT22;5476;51.540;7.186;2023-09-12T16:17:28;30.60;99.90
10846;DHT22;5476;51.540;7.186;2023-09-12T16:19:56;30.60;99.90
10846;DHT22;5476;51.540;7.186;2023-09-12T16:22:23;30.50;99.90
10846;DHT22;5476;51.540;7.186;2023-09-12T16:24:50;30.50;99.90
10846;DHT22;5476;51.540;7.186;2023-09-12T16:27:16;30.50;99.90
10846;DHT22;5476;51.540;7.186;2023-09-12T16:29:47;30.40;99.90
10846;DHT22;5476;51.540;7.186;2023-09-12T16:32:16;30.30;99.90
10846;DHT22;5476;51.540;7.186;2023-09-12T16:34:45;30.20;99.90